首页
METAR-TAF:

METAR-TAF

机场 :

Benbecula, 苏格兰

纬度: 57-28N, 经度: 007-22W, 海拔: 6米

当前天气观测

该预报发布于12分钟前的09:20 UTC
风速5节,风向北转西北,在西北转东北之间变化
温度 13°C
湿度 62%
气压 1014 hPa
能见度10公里或以上

METAR: EGPL 190920Z AUTO 33005KT 280V030 9999 SCT028/// SCT033/// 13/06 Q1014

时间: 10:32 (09:32 UTC)

预报

该预报发布于1小时和38分钟前的07:54 UTC
预报有效从19日的 09点(UTC)到 19日的 15点(UTC)
风速3节,风向多变
能见度10公里或以上
少量云层高于4500英尺
成为
从 19日的 09点(UTC)到 19日的 12点(UTC)
风速10节,风向西转西北

TAF: EGPL 190754Z 1909/1915 VRB03KT 9999 FEW045 BECMG 1909/1912 30010KT

超过4000个机场的气象观测和天气预报(METAR&TAF报告)。

可查询的气象台以黄色和红色小点在地图上表示。

将鼠标移到小点上方,可查看气象台名称。

然后点击查看天气观测和预报。

如需切换地图:点击带黑十字的绿色按钮放大地图;点击带横线的绿色按钮缩小地图;或者点击绿色箭头查看邻近地区的地图。


METAR-TAF: